sensor_id;sensor_type;location;lat;lon;timestamp;pressure;altitude;pressure_sealevel;temperature;humidity
73633;BME280;61927;50.080;14.418;2022-09-09T00:00:41;99146.53;;;14.94;78.90
73633;BME280;61927;50.080;14.418;2022-09-09T00:03:27;99146.53;;;14.94;78.66
73633;BME280;61927;50.080;14.418;2022-09-09T00:09:17;99151.09;;;14.82;79.31
73633;BME280;61927;50.080;14.418;2022-09-09T00:12:10;99153.03;;;14.80;79.18
73633;BME280;61927;50.080;14.418;2022-09-09T00:14:47;99148.81;;;14.77;79.54
73633;BME280;61927;50.080;14.418;2022-09-09T00:17:43;99148.34;;;14.72;79.63
73633;BME280;61927;50.080;14.418;2022-09-09T00:23:09;99152.97;;;14.70;79.53
73633;BME280;61927;50.080;14.418;2022-09-09T00:25:49;99158.31;;;14.70;79.62
73633;BME280;61927;50.080;14.418;2022-09-09T00:28:22;99151.53;;;14.66;79.63
73633;BME280;61927;50.080;14.418;2022-09-09T00:30:48;99160.50;;;14.65;79.89
73633;BME280;61927;50.080;14.418;2022-09-09T00:33:16;99156.03;;;14.66;79.76
73633;BME280;61927;50.080;14.418;2022-09-09T00:35:52;99152.63;;;14.64;79.57
73633;BME280;61927;50.080;14.418;2022-09-09T00:38:53;99156.66;;;14.58;79.95
73633;BME280;61927;50.080;14.418;2022-09-09T00:41:30;99156.19;;;14.53;79.98
73633;BME280;61927;50.080;14.418;2022-09-09T00:44:32;99157.28;;;14.50;80.07
73633;BME280;61927;50.080;14.418;2022-09-09T00:55:34;99157.53;;;14.47;80.43
73633;BME280;61927;50.080;14.418;2022-09-09T00:58:07;99161.06;;;14.48;80.55
73633;BME280;61927;50.080;14.418;2022-09-09T01:00:44;99168.34;;;14.46;80.50
73633;BME280;61927;50.080;14.418;2022-09-09T01:08:39;99166.16;;;14.40;80.51
73633;BME280;61927;50.080;14.418;2022-09-09T01:11:20;99171.50;;;14.40;80.68
73633;BME280;61927;50.080;14.418;2022-09-09T01:13:47;99169.56;;;14.42;80.48
73633;BME280;61927;50.080;14.418;2022-09-09T01:16:15;99173.19;;;14.41;80.62
73633;BME280;61927;50.080;14.418;2022-09-09T01:18:49;99167.13;;;14.39;80.49
73633;BME280;61927;50.080;14.418;2022-09-09T01:21:42;99173.94;;;14.43;80.46
73633;BME280;61927;50.080;14.418;2022-09-09T01:24:17;99173.19;;;14.41;80.71
73633;BME280;61927;50.080;14.418;2022-09-09T01:26:46;99171.16;;;14.44;80.59
73633;BME280;61927;50.080;14.418;2022-09-09T01:29:15;99168.34;;;14.46;80.29
73633;BME280;61927;50.080;14.418;2022-09-09T01:32:02;99170.78;;;14.49;80.06
73633;BME280;61927;50.080;14.418;2022-09-09T01:34:31;99172.59;;;14.48;79.89
73633;BME280;61927;50.080;14.418;2022-09-09T01:39:31;99163.72;;;14.48;79.67
73633;BME280;61927;50.080;14.418;2022-09-09T01:41:58;99171.03;;;14.46;80.09
73633;BME280;61927;50.080;14.418;2022-09-09T01:44:24;99167.38;;;14.47;79.78
73633;BME280;61927;50.080;14.418;2022-09-09T01:46:51;99161.56;;;14.42;80.12
73633;BME280;61927;50.080;14.418;2022-09-09T01:49:17;99158.03;;;14.41;80.10
73633;BME280;61927;50.080;14.418;2022-09-09T01:51:43;99162.63;;;14.39;80.15
73633;BME280;61927;50.080;14.418;2022-09-09T01:54:11;99157.56;;;14.36;80.33
73633;BME280;61927;50.080;14.418;2022-09-09T02:04:43;99157.81;;;14.44;79.78
73633;BME280;61927;50.080;14.418;2022-09-09T02:10:24;99155.13;;;14.44;79.82
73633;BME280;61927;50.080;14.418;2022-09-09T02:13:04;99152.59;;;14.43;79.75
73633;BME280;61927;50.080;14.418;2022-09-09T02:15:36;99158.03;;;14.41;79.99
73633;BME280;61927;50.080;14.418;2022-09-09T02:18:08;99159.13;;;14.39;80.02
73633;BME280;61927;50.080;14.418;2022-09-09T02:20:37;99161.91;;;14.37;79.79
73633;BME280;61927;50.080;14.418;2022-09-09T02:23:05;99156.56;;;14.37;79.95
73633;BME280;61927;50.080;14.418;2022-09-09T02:25:35;99162.88;;;14.36;80.02
73633;BME280;61927;50.080;14.418;2022-09-09T02:28:04;99157.69;;;14.35;80.11
73633;BME280;61927;50.080;14.418;2022-09-09T02:30:32;99157.06;;;14.31;80.36
73633;BME280;61927;50.080;14.418;2022-09-09T02:33:01;99164.38;;;14.29;80.21
73633;BME280;61927;50.080;14.418;2022-09-09T02:35:30;99159.28;;;14.26;80.41
73633;BME280;61927;50.080;14.418;2022-09-09T02:38:01;99159.28;;;14.26;80.19
73633;BME280;61927;50.080;14.418;2022-09-09T02:40:29;99163.63;;;14.27;80.18
73633;BME280;61927;50.080;14.418;2022-09-09T02:42:54;99156.84;;;14.23;80.10
73633;BME280;61927;50.080;14.418;2022-09-09T02:45:24;99170.06;;;14.25;80.19
73633;BME280;61927;50.080;14.418;2022-09-09T02:47:59;99163.28;;;14.20;80.45
73633;BME280;61927;50.080;14.418;2022-09-09T02:50:43;99156.75;;;14.13;80.71
73633;BME280;61927;50.080;14.418;2022-09-09T02:53:30;99158.69;;;14.11;80.76
73633;BME280;61927;50.080;14.418;2022-09-09T02:56:09;99164.03;;;14.11;80.91
73633;BME280;61927;50.080;14.418;2022-09-09T02:58:39;99165.00;;;14.10;80.81
73633;BME280;61927;50.080;14.418;2022-09-09T03:01:05;99165.72;;;14.12;80.64
73633;BME280;61927;50.080;14.418;2022-09-09T03:03:31;99164.63;;;14.15;80.63
73633;BME280;61927;50.080;14.418;2022-09-09T03:05:56;99168.16;;;14.15;80.39
73633;BME280;61927;50.080;14.418;2022-09-09T03:08:22;99168.41;;;14.12;80.24
73633;BME280;61927;50.080;14.418;2022-09-09T03:10:48;99167.81;;;14.09;80.53
73633;BME280;61927;50.080;14.418;2022-09-09T03:13:14;99165.00;;;14.10;80.47
73633;BME280;61927;50.080;14.418;2022-09-09T03:15:41;99166.22;;;14.06;80.52
73633;BME280;61927;50.080;14.418;2022-09-09T03:18:06;99170.00;;;14.04;80.84
73633;BME280;61927;50.080;14.418;2022-09-09T03:20:32;99167.44;;;14.02;80.88
73633;BME280;61927;50.080;14.418;2022-09-09T03:22:59;99161.13;;;14.03;80.97
73633;BME280;61927;50.080;14.418;2022-09-09T03:25:25;99165.50;;;14.04;81.00
73633;BME280;61927;50.080;14.418;2022-09-09T03:27:52;99160.16;;;14.04;80.76
73633;BME280;61927;50.080;14.418;2022-09-09T03:30:23;99168.28;;;14.03;80.88
73633;BME280;61927;50.080;14.418;2022-09-09T03:32:49;99165.16;;;13.98;81.13
73633;BME280;61927;50.080;14.418;2022-09-09T03:35:15;99167.69;;;13.99;81.37
73633;BME280;61927;50.080;14.418;2022-09-09T03:37:41;99169.88;;;13.94;81.16
73633;BME280;61927;50.080;14.418;2022-09-09T03:40:08;99177.16;;;13.92;80.94
73633;BME280;61927;50.080;14.418;2022-09-09T03:42:35;99175.22;;;13.94;81.17
73633;BME280;61927;50.080;14.418;2022-09-09T03:45:07;99178.84;;;13.93;81.32
73633;BME280;61927;50.080;14.418;2022-09-09T03:47:34;99171.56;;;13.95;81.08
73633;BME280;61927;50.080;14.418;2022-09-09T03:50:00;99169.50;;;13.99;80.77
73633;BME280;61927;50.080;14.418;2022-09-09T03:52:26;99167.56;;;14.01;80.59
73633;BME280;61927;50.080;14.418;2022-09-09T03:54:54;99156.78;;;14.02;80.50
73633;BME280;61927;50.080;14.418;2022-09-09T03:57:20;99163.94;;;14.02;80.40
73633;BME280;61927;50.080;14.418;2022-09-09T03:59:47;99164.66;;;14.04;80.26
73633;BME280;61927;50.080;14.418;2022-09-09T04:02:12;99163.94;;;14.02;80.32
73633;BME280;61927;50.080;14.418;2022-09-09T04:04:37;99162.09;;;14.02;80.34
73633;BME280;61927;50.080;14.418;2022-09-09T04:07:03;99161.25;;;14.02;80.37
73633;BME280;61927;50.080;14.418;2022-09-09T04:09:31;99160.41;;;14.01;80.27
73633;BME280;61927;50.080;14.418;2022-09-09T04:11:56;99166.00;;;13.98;80.52
73633;BME280;61927;50.080;14.418;2022-09-09T04:14:22;99168.66;;;13.98;80.22
73633;BME280;61927;50.080;14.418;2022-09-09T04:16:47;99166.25;;;13.95;80.19
73633;BME280;61927;50.080;14.418;2022-09-09T04:19:13;99169.03;;;13.94;80.45
73633;BME280;61927;50.080;14.418;2022-09-09T04:21:40;99168.19;;;13.93;80.24
73633;BME280;61927;50.080;14.418;2022-09-09T04:24:07;99163.09;;;13.90;80.47
73633;BME280;61927;50.080;14.418;2022-09-09T04:26:34;99159.69;;;13.88;80.45
73633;BME280;61927;50.080;14.418;2022-09-09T04:29:00;99170.25;;;13.89;80.71
73633;BME280;61927;50.080;14.418;2022-09-09T04:31:26;99169.88;;;13.94;80.36
73633;BME280;61927;50.080;14.418;2022-09-09T04:33:51;99164.31;;;13.97;80.60
73633;BME280;61927;50.080;14.418;2022-09-09T04:36:18;99168.53;;;14.00;80.03
73633;BME280;61927;50.080;14.418;2022-09-09T04:38:45;99164.78;;;14.02;79.86
73633;BME280;61927;50.080;14.418;2022-09-09T04:41:11;99169.03;;;14.05;79.72
73633;BME280;61927;50.080;14.418;2022-09-09T04:43:38;99168.06;;;14.06;79.72
73633;BME280;61927;50.080;14.418;2022-09-09T04:46:04;99175.22;;;14.05;79.75
73633;BME280;61927;50.080;14.418;2022-09-09T04:48:30;99175.94;;;14.07;79.95
73633;BME280;61927;50.080;14.418;2022-09-09T04:51:00;99183.81;;;14.09;79.63
73633;BME280;61927;50.080;14.418;2022-09-09T04:53:27;99178.47;;;14.09;79.64
73633;BME280;61927;50.080;14.418;2022-09-09T04:56:13;99179.31;;;14.09;79.60
73633;BME280;61927;50.080;14.418;2022-09-09T04:58:40;99178.47;;;14.09;79.66
73633;BME280;61927;50.080;14.418;2022-09-09T05:01:13;99186.09;;;14.13;79.61
73633;BME280;61927;50.080;14.418;2022-09-09T05:03:39;99176.16;;;14.15;79.24
73633;BME280;61927;50.080;14.418;2022-09-09T05:06:07;99173.50;;;14.15;79.38
73633;BME280;61927;50.080;14.418;2022-09-09T05:08:38;99177.97;;;14.15;79.42
73633;BME280;61927;50.080;14.418;2022-09-09T05:11:24;99178.69;;;14.17;79.65
73633;BME280;61927;50.080;14.418;2022-09-09T05:13:51;99185.72;;;14.29;79.32
73633;BME280;61927;50.080;14.418;2022-09-09T05:16:18;99197.97;;;14.32;78.79
73633;BME280;61927;50.080;14.418;2022-09-09T05:18:45;99195.03;;;14.35;78.80
73633;BME280;61927;50.080;14.418;2022-09-09T05:21:13;99187.88;;;14.35;78.72
73633;BME280;61927;50.080;14.418;2022-09-09T05:23:39;99196.63;;;14.37;78.81
73633;BME280;61927;50.080;14.418;2022-09-09T05:26:05;99198.06;;;14.41;78.80
73633;BME280;61927;50.080;14.418;2022-09-09T05:28:35;99202.47;;;14.42;78.50
73633;BME280;61927;50.080;14.418;2022-09-09T05:31:03;99190.81;;;14.43;78.47
73633;BME280;61927;50.080;14.418;2022-09-09T05:33:30;99191.28;;;14.48;78.36
73633;BME280;61927;50.080;14.418;2022-09-09T05:36:01;99197.22;;;14.52;78.25
73633;BME280;61927;50.080;14.418;2022-09-09T05:38:28;99196.97;;;14.55;78.18
73633;BME280;61927;50.080;14.418;2022-09-09T05:40:54;99196.22;;;14.64;77.62
73633;BME280;61927;50.080;14.418;2022-09-09T05:43:22;99200.06;;;14.71;77.49
73633;BME280;61927;50.080;14.418;2022-09-09T05:45:57;99190.56;;;14.78;77.28
73633;BME280;61927;50.080;14.418;2022-09-09T05:48:24;99195.19;;;14.76;77.24
73633;BME280;61927;50.080;14.418;2022-09-09T05:50:53;99199.34;;;14.69;77.43
73633;BME280;61927;50.080;14.418;2022-09-09T05:53:19;99199.59;;;14.66;77.43
73633;BME280;61927;50.080;14.418;2022-09-09T05:55:45;99200.56;;;14.65;77.61
73633;BME280;61927;50.080;14.418;2022-09-09T05:58:11;99198.88;;;14.64;77.57
73633;BME280;61927;50.080;14.418;2022-09-09T06:00:36;99203.25;;;14.65;77.42
73633;BME280;61927;50.080;14.418;2022-09-09T06:03:03;99205.31;;;14.62;77.65
73633;BME280;61927;50.080;14.418;2022-09-09T06:05:29;99207.53;;;14.57;77.85
73633;BME280;61927;50.080;14.418;2022-09-09T06:07:55;99215.78;;;14.53;77.90
73633;BME280;61927;50.080;14.418;2022-09-09T06:10:21;99214.22;;;14.51;77.76
73633;BME280;61927;50.080;14.418;2022-09-09T06:12:47;99217.97;;;14.48;78.05
73633;BME280;61927;50.080;14.418;2022-09-09T06:15:12;99217.97;;;14.48;78.28
73633;BME280;61927;50.080;14.418;2022-09-09T06:17:38;99216.28;;;14.47;78.05
73633;BME280;61927;50.080;14.418;2022-09-09T06:20:05;99221.63;;;14.47;77.96
73633;BME280;61927;50.080;14.418;2022-09-09T06:22:30;99227.22;;;14.44;78.35
73633;BME280;61927;50.080;14.418;2022-09-09T06:24:56;99221.03;;;14.44;78.41
73633;BME280;61927;50.080;14.418;2022-09-09T06:27:22;99214.84;;;14.43;78.44
73633;BME280;61927;50.080;14.418;2022-09-09T06:29:47;99217.50;;;14.43;78.74
73633;BME280;61927;50.080;14.418;2022-09-09T06:32:13;99218.94;;;14.47;78.73
73633;BME280;61927;50.080;14.418;2022-09-09T06:34:39;99222.47;;;14.48;78.36
73633;BME280;61927;50.080;14.418;2022-09-09T06:37:05;99228.03;;;14.56;78.18
73633;BME280;61927;50.080;14.418;2022-09-09T06:39:32;99226.94;;;14.59;77.78
73633;BME280;61927;50.080;14.418;2022-09-09T06:41:57;99228.63;;;14.60;77.84
73633;BME280;61927;50.080;14.418;2022-09-09T06:44:24;99233.00;;;14.61;77.84
73633;BME280;61927;50.080;14.418;2022-09-09T06:46:52;99229.81;;;14.67;77.98
73633;BME280;61927;50.080;14.418;2022-09-09T06:49:17;99219.88;;;14.69;77.65
73633;BME280;61927;50.080;14.418;2022-09-09T06:51:43;99219.59;;;14.72;77.78
73633;BME280;61927;50.080;14.418;2022-09-09T06:54:11;99215.59;;;14.77;77.72
73633;BME280;61927;50.080;14.418;2022-09-09T06:56:39;99214.69;;;14.88;77.52
73633;BME280;61927;50.080;14.418;2022-09-09T06:59:07;99220.00;;;14.99;77.17
73633;BME280;61927;50.080;14.418;2022-09-09T07:01:36;99229.06;;;15.08;76.54
73633;BME280;61927;50.080;14.418;2022-09-09T07:04:03;99220.91;;;15.09;76.32
73633;BME280;61927;50.080;14.418;2022-09-09T07:06:31;99219.09;;;15.10;76.57
73633;BME280;61927;50.080;14.418;2022-09-09T07:09:00;99219.41;;;15.16;76.29
73633;BME280;61927;50.080;14.418;2022-09-09T07:11:28;99217.66;;;15.27;76.04
73633;BME280;61927;50.080;14.418;2022-09-09T07:13:54;99216.34;;;15.42;75.74
73633;BME280;61927;50.080;14.418;2022-09-09T07:16:22;99219.34;;;15.48;75.58
73633;BME280;61927;50.080;14.418;2022-09-09T07:18:51;99220.66;;;15.54;75.15
73633;BME280;61927;50.080;14.418;2022-09-09T07:21:18;99217.63;;;15.59;75.01
73633;BME280;61927;50.080;14.418;2022-09-09T07:23:44;99207.09;;;15.67;75.06
73633;BME280;61927;50.080;14.418;2022-09-09T07:26:12;99212.63;;;15.75;74.82
73633;BME280;61927;50.080;14.418;2022-09-09T07:28:39;99204.66;;;15.85;74.25
73633;BME280;61927;50.080;14.418;2022-09-09T07:31:05;99207.09;;;15.97;73.86
73633;BME280;61927;50.080;14.418;2022-09-09T07:33:34;99211.50;;;16.08;73.60
73633;BME280;61927;50.080;14.418;2022-09-09T07:36:06;99211.25;;;16.11;73.37
73633;BME280;61927;50.080;14.418;2022-09-09T07:38:47;99209.41;;;16.11;73.56
73633;BME280;61927;50.080;14.418;2022-09-09T07:41:16;99212.66;;;16.15;73.20
73633;BME280;61927;50.080;14.418;2022-09-09T07:43:44;99210.69;;;16.17;73.31
73633;BME280;61927;50.080;14.418;2022-09-09T07:46:12;99215.91;;;16.19;73.23
73633;BME280;61927;50.080;14.418;2022-09-09T07:48:43;99214.94;;;16.20;73.49
73633;BME280;61927;50.080;14.418;2022-09-09T07:51:16;99218.06;;;16.25;73.30
73633;BME280;61927;50.080;14.418;2022-09-09T07:53:46;99223.44;;;16.34;72.66
73633;BME280;61927;50.080;14.418;2022-09-09T07:56:14;99216.13;;;16.46;72.59
73633;BME280;61927;50.080;14.418;2022-09-09T07:58:45;99219.81;;;16.55;72.61
73633;BME280;61927;50.080;14.418;2022-09-09T08:03:45;99215.22;;;16.76;71.41
73633;BME280;61927;50.080;14.418;2022-09-09T08:06:12;99218.75;;;16.76;71.75
73633;BME280;61927;50.080;14.418;2022-09-09T08:08:39;99223.13;;;16.77;71.75
73633;BME280;61927;50.080;14.418;2022-09-09T08:11:13;99227.63;;;16.77;71.77
73633;BME280;61927;50.080;14.418;2022-09-09T08:13:41;99216.78;;;16.78;72.03
73633;BME280;61927;50.080;14.418;2022-09-09T08:16:13;99214.94;;;16.89;71.29
73633;BME280;61927;50.080;14.418;2022-09-09T08:18:40;99229.63;;;17.04;70.73
73633;BME280;61927;50.080;14.418;2022-09-09T08:21:12;99230.75;;;17.21;69.99
73633;BME280;61927;50.080;14.418;2022-09-09T08:23:41;99239.06;;;17.47;69.40
73633;BME280;61927;50.080;14.418;2022-09-09T08:26:19;99234.38;;;17.68;68.81
73633;BME280;61927;50.080;14.418;2022-09-09T08:28:46;99235.31;;;17.86;68.76
73633;BME280;61927;50.080;14.418;2022-09-09T08:31:16;99234.59;;;17.94;68.58
73633;BME280;61927;50.080;14.418;2022-09-09T08:33:43;99236.53;;;18.01;67.98
73633;BME280;61927;50.080;14.418;2022-09-09T08:36:12;99235.53;;;18.02;68.17
73633;BME280;61927;50.080;14.418;2022-09-09T08:38:41;99242.31;;;18.06;68.13
73633;BME280;61927;50.080;14.418;2022-09-09T08:43:43;99227.84;;;18.17;67.99
73633;BME280;61927;50.080;14.418;2022-09-09T08:46:27;99228.00;;;18.16;68.07
73633;BME280;61927;50.080;14.418;2022-09-09T08:49:06;99222.66;;;18.06;68.52
73633;BME280;61927;50.080;14.418;2022-09-09T08:51:35;99227.38;;;17.94;69.30
73633;BME280;61927;50.080;14.418;2022-09-09T08:54:03;99225.13;;;17.90;69.65
73633;BME280;61927;50.080;14.418;2022-09-09T08:56:31;99234.31;;;17.87;69.36
73633;BME280;61927;50.080;14.418;2022-09-09T08:58:59;99242.53;;;17.86;69.51
73633;BME280;61927;50.080;14.418;2022-09-09T09:01:33;99231.38;;;17.81;69.84
73633;BME280;61927;50.080;14.418;2022-09-09T09:04:19;99235.91;;;17.80;70.40
73633;BME280;61927;50.080;14.418;2022-09-09T09:07:07;99222.72;;;17.96;69.65
73633;BME280;61927;50.080;14.418;2022-09-09T09:12:18;99226.56;;;18.21;68.39
73633;BME280;61927;50.080;14.418;2022-09-09T09:14:46;99219.63;;;18.19;68.30
73633;BME280;61927;50.080;14.418;2022-09-09T09:17:15;99217.25;;;18.16;67.88
73633;BME280;61927;50.080;14.418;2022-09-09T09:19:43;99213.44;;;18.18;68.29
73633;BME280;61927;50.080;14.418;2022-09-09T09:25:11;99199.53;;;18.23;68.17
73633;BME280;61927;50.080;14.418;2022-09-09T09:28:03;99205.75;;;18.23;67.98
73633;BME280;61927;50.080;14.418;2022-09-09T09:30:39;99202.94;;;18.25;67.36
73633;BME280;61927;50.080;14.418;2022-09-09T09:33:24;99202.63;;;18.28;68.19
73633;BME280;61927;50.080;14.418;2022-09-09T09:35:52;99202.44;;;18.39;68.03
73633;BME280;61927;50.080;14.418;2022-09-09T09:40:53;99199.97;;;18.46;67.78
73633;BME280;61927;50.080;14.418;2022-09-09T09:43:32;99197.09;;;18.57;67.31
73633;BME280;61927;50.080;14.418;2022-09-09T09:45:58;99193.81;;;18.63;66.56
73633;BME280;61927;50.080;14.418;2022-09-09T09:48:26;99193.66;;;18.64;67.36
73633;BME280;61927;50.080;14.418;2022-09-09T09:51:02;99194.75;;;18.71;67.11
73633;BME280;61927;50.080;14.418;2022-09-09T09:53:30;99192.59;;;18.75;66.81
73633;BME280;61927;50.080;14.418;2022-09-09T09:56:03;99189.59;;;18.78;66.06
73633;BME280;61927;50.080;14.418;2022-09-09T09:58:32;99186.31;;;18.84;65.56
73633;BME280;61927;50.080;14.418;2022-09-09T10:00:59;99187.06;;;18.94;65.24
73633;BME280;61927;50.080;14.418;2022-09-09T10:03:30;99183.75;;;19.00;64.85
73633;BME280;61927;50.080;14.418;2022-09-09T10:05:56;99186.00;;;19.05;64.78
73633;BME280;61927;50.080;14.418;2022-09-09T10:08:27;99181.38;;;19.15;63.64
73633;BME280;61927;50.080;14.418;2022-09-09T10:13:29;99176.16;;;19.40;58.01
73633;BME280;61927;50.080;14.418;2022-09-09T10:16:25;99171.84;;;19.47;58.88
73633;BME280;61927;50.080;14.418;2022-09-09T10:27:01;99161.03;;;19.90;57.53
73633;BME280;61927;50.080;14.418;2022-09-09T10:32:48;99148.88;;;20.28;55.85
73633;BME280;61927;50.080;14.418;2022-09-09T10:38:16;99144.91;;;20.49;55.34
73633;BME280;61927;50.080;14.418;2022-09-09T10:40:49;99149.50;;;20.73;54.11
73633;BME280;61927;50.080;14.418;2022-09-09T10:43:29;99142.63;;;20.94;53.19
73633;BME280;61927;50.080;14.418;2022-09-09T10:46:08;99138.06;;;21.19;51.32
73633;BME280;61927;50.080;14.418;2022-09-09T10:56:53;99122.50;;;21.54;51.03
73633;BME280;61927;50.080;14.418;2022-09-09T10:59:29;99127.03;;;21.62;50.10
73633;BME280;61927;50.080;14.418;2022-09-09T11:02:13;99129.53;;;21.79;49.98
73633;BME280;61927;50.080;14.418;2022-09-09T11:04:43;99115.78;;;21.97;49.34
73633;BME280;61927;50.080;14.418;2022-09-09T11:07:13;99118.97;;;22.09;49.37
73633;BME280;61927;50.080;14.418;2022-09-09T11:09:47;99120.47;;;22.11;48.38
73633;BME280;61927;50.080;14.418;2022-09-09T11:12:19;99124.69;;;22.14;48.41
73633;BME280;61927;50.080;14.418;2022-09-09T11:14:53;99135.28;;;22.23;47.99
73633;BME280;61927;50.080;14.418;2022-09-09T11:17:25;99125.66;;;22.21;47.83
73633;BME280;61927;50.080;14.418;2022-09-09T11:19:52;99129.41;;;22.12;48.76
73633;BME280;61927;50.080;14.418;2022-09-09T11:22:37;99139.06;;;21.98;49.12
73633;BME280;61927;50.080;14.418;2022-09-09T11:25:18;99125.28;;;21.85;48.09
73633;BME280;61927;50.080;14.418;2022-09-09T11:41:50;99141.75;;;21.18;55.05
73633;BME280;61927;50.080;14.418;2022-09-09T11:44:21;99139.25;;;21.01;54.50
73633;BME280;61927;50.080;14.418;2022-09-09T11:46:51;99139.91;;;20.86;56.42
73633;BME280;61927;50.080;14.418;2022-09-09T11:49:27;99147.16;;;20.70;57.83
73633;BME280;61927;50.080;14.418;2022-09-09T11:51:54;99138.19;;;20.61;58.54
73633;BME280;61927;50.080;14.418;2022-09-09T11:54:46;99152.53;;;20.61;60.50
73633;BME280;61927;50.080;14.418;2022-09-09T11:57:45;99155.56;;;20.58;60.03
73633;BME280;61927;50.080;14.418;2022-09-09T12:02:58;99169.94;;;19.57;61.56
73633;BME280;61927;50.080;14.418;2022-09-09T12:05:34;99161.78;;;19.49;58.86
73633;BME280;61927;50.080;14.418;2022-09-09T12:08:02;99152.84;;;19.48;53.84
73633;BME280;61927;50.080;14.418;2022-09-09T12:10:54;99168.16;;;19.48;53.12
73633;BME280;61927;50.080;14.418;2022-09-09T12:13:23;99160.47;;;19.53;59.74
73633;BME280;61927;50.080;14.418;2022-09-09T12:15:53;99150.31;;;19.47;62.65
73633;BME280;61927;50.080;14.418;2022-09-09T12:18:25;99144.19;;;19.36;66.08
73633;BME280;61927;50.080;14.418;2022-09-09T12:26:30;99158.47;;;19.11;69.56
73633;BME280;61927;50.080;14.418;2022-09-09T12:29:18;99163.84;;;19.11;68.40
73633;BME280;61927;50.080;14.418;2022-09-09T12:32:22;99151.72;;;19.07;70.29
73633;BME280;61927;50.080;14.418;2022-09-09T12:35:02;99157.09;;;19.07;69.16
73633;BME280;61927;50.080;14.418;2022-09-09T12:37:33;99177.63;;;18.90;71.78
73633;BME280;61927;50.080;14.418;2022-09-09T12:40:03;99178.81;;;18.60;73.88
73633;BME280;61927;50.080;14.418;2022-09-09T12:42:30;99166.19;;;18.25;74.83
73633;BME280;61927;50.080;14.418;2022-09-09T12:45:00;99160.22;;;18.04;75.74
73633;BME280;61927;50.080;14.418;2022-09-09T12:47:38;99152.53;;;17.82;75.35
73633;BME280;61927;50.080;14.418;2022-09-09T12:50:16;99156.13;;;17.63;73.24
73633;BME280;61927;50.080;14.418;2022-09-09T12:52:43;99163.75;;;17.58;72.03
73633;BME280;61927;50.080;14.418;2022-09-09T12:55:20;99192.44;;;17.57;67.92
73633;BME280;61927;50.080;14.418;2022-09-09T12:57:48;99232.53;;;17.59;65.84
73633;BME280;61927;50.080;14.418;2022-09-09T13:00:19;99224.50;;;17.49;67.55
73633;BME280;61927;50.080;14.418;2022-09-09T13:02:56;99226.94;;;17.14;68.98
73633;BME280;61927;50.080;14.418;2022-09-09T13:08:04;99205.28;;;16.47;76.54
73633;BME280;61927;50.080;14.418;2022-09-09T13:10:37;99205.25;;;16.38;74.63
73633;BME280;61927;50.080;14.418;2022-09-09T13:13:14;99202.06;;;16.54;72.10
73633;BME280;61927;50.080;14.418;2022-09-09T13:15:49;99192.81;;;16.77;72.28
73633;BME280;61927;50.080;14.418;2022-09-09T13:18:16;99178.41;;;16.97;71.82
73633;BME280;61927;50.080;14.418;2022-09-09T13:20:47;99174.28;;;17.22;71.14
73633;BME280;61927;50.080;14.418;2022-09-09T13:23:14;99171.25;;;17.54;69.70
73633;BME280;61927;50.080;14.418;2022-09-09T13:25:40;99166.38;;;17.87;70.20
73633;BME280;61927;50.080;14.418;2022-09-09T13:28:20;99169.91;;;18.15;70.02
73633;BME280;61927;50.080;14.418;2022-09-09T13:31:05;99174.72;;;18.38;70.85
73633;BME280;61927;50.080;14.418;2022-09-09T13:33:34;99175.53;;;18.66;69.56
73633;BME280;61927;50.080;14.418;2022-09-09T13:36:08;99180.31;;;18.90;67.74
73633;BME280;61927;50.080;14.418;2022-09-09T13:38:53;99167.69;;;19.09;67.61
73633;BME280;61927;50.080;14.418;2022-09-09T13:41:21;99163.28;;;19.25;67.99
73633;BME280;61927;50.080;14.418;2022-09-09T13:43:49;99150.16;;;19.48;68.75
73633;BME280;61927;50.080;14.418;2022-09-09T13:46:38;99136.69;;;19.48;66.93
73633;BME280;61927;50.080;14.418;2022-09-09T13:51:48;99128.69;;;19.30;66.74
73633;BME280;61927;50.080;14.418;2022-09-09T13:54:18;99129.69;;;19.29;69.20
73633;BME280;61927;50.080;14.418;2022-09-09T13:56:44;99129.53;;;19.31;69.77
73633;BME280;61927;50.080;14.418;2022-09-09T13:59:15;99129.44;;;19.41;69.74
73633;BME280;61927;50.080;14.418;2022-09-09T14:01:42;99122.25;;;19.49;67.37
73633;BME280;61927;50.080;14.418;2022-09-09T14:04:08;99123.31;;;19.56;67.35
73633;BME280;61927;50.080;14.418;2022-09-09T14:06:35;99120.50;;;19.66;67.78
73633;BME280;61927;50.080;14.418;2022-09-09T14:09:08;99116.63;;;19.60;68.40
73633;BME280;61927;50.080;14.418;2022-09-09T14:11:35;99125.38;;;19.62;68.79
73633;BME280;61927;50.080;14.418;2022-09-09T14:14:01;99123.22;;;19.66;69.02
73633;BME280;61927;50.080;14.418;2022-09-09T14:16:29;99120.88;;;19.71;69.10
73633;BME280;61927;50.080;14.418;2022-09-09T14:18:54;99121.97;;;19.86;68.94
73633;BME280;61927;50.080;14.418;2022-09-09T14:21:25;99113.09;;;20.02;67.33
73633;BME280;61927;50.080;14.418;2022-09-09T14:23:51;99105.91;;;20.19;69.26
73633;BME280;61927;50.080;14.418;2022-09-09T14:26:20;99100.53;;;20.27;63.72
73633;BME280;61927;50.080;14.418;2022-09-09T14:28:47;99108.97;;;20.24;65.53
73633;BME280;61927;50.080;14.418;2022-09-09T14:31:13;99107.59;;;20.20;67.50
73633;BME280;61927;50.080;14.418;2022-09-09T14:33:40;99103.91;;;20.21;67.46
73633;BME280;61927;50.080;14.418;2022-09-09T14:36:06;99101.38;;;20.19;66.47
73633;BME280;61927;50.080;14.418;2022-09-09T14:38:36;99100.50;;;20.11;67.43
73633;BME280;61927;50.080;14.418;2022-09-09T14:41:06;99099.47;;;20.04;68.33
73633;BME280;61927;50.080;14.418;2022-09-09T14:43:32;99093.06;;;20.05;67.43
73633;BME280;61927;50.080;14.418;2022-09-09T14:46:08;99096.94;;;20.02;66.46
73633;BME280;61927;50.080;14.418;2022-09-09T14:48:35;99086.66;;;19.97;65.59